East Earl, Pennsylvania
Current Conditions -  °F | °C
As of 10:35 AM on Friday 28 Nov 2014 (Local Time) from KMQS Reporting Station
Broken Clouds Broken Clouds  
Wind Chill: 22°   Ceiling: 4800
Heat Index: 32°   Visibility: 10mi
Dew Point: 18°   Wind: 14mph
Humidity: 55%   Direction: 320°NW
Pressure: 30.24"   Gusts: 20mph
Location:  40.11°N, 76.03°W
Report Text: KMQS 281535Z AUTO 32012G17KT 10SM FEW041 BKN048 BKN055 00/M08 A3024 RMK AO2
Loading
Personal Weather Stations






























Interactive Weather Map New forecast layout! Learn more

10-Day Weather Forecast

Advertisements
Track Severe Weather on mobile